createdAt,value
2023-03-29T00:01:50.026Z,101121.38
2023-03-29T00:04:53.684Z,101130.09
2023-03-29T00:08:02.006Z,101137.16
2023-03-29T00:11:05.049Z,101139.56
2023-03-29T00:14:08.800Z,101133.47
2023-03-29T00:17:11.380Z,101140.84
2023-03-29T00:20:14.419Z,101126.03
2023-03-29T00:23:18.404Z,101120.88
2023-03-29T00:26:21.034Z,101130.94
2023-03-29T00:29:23.693Z,101125.06
2023-03-29T00:32:26.512Z,101119.94
2023-03-29T00:35:29.124Z,101116.59
2023-03-29T00:38:32.271Z,101121.50
2023-03-29T00:41:34.832Z,101122.47
2023-03-29T00:45:06.215Z,101118.06
2023-03-29T00:48:24.440Z,101125.22
2023-03-29T00:51:30.634Z,101131.69
2023-03-29T00:54:34.494Z,101124.16
2023-03-29T00:57:39.814Z,101120.19
2023-03-29T01:00:52.219Z,101117.06
2023-03-29T01:04:03.693Z,101113.28
2023-03-29T01:07:35.982Z,101102.53
2023-03-29T01:10:45.772Z,101098.56
2023-03-29T01:14:08.217Z,101098.94
2023-03-29T01:17:11.054Z,101090.09
2023-03-29T01:20:38.916Z,101082.81
2023-03-29T01:23:48.248Z,101082.31
2023-03-29T01:27:28.896Z,101078.75
2023-03-29T01:31:08.498Z,101078.38
2023-03-29T01:34:18.231Z,101072.16
2023-03-29T01:37:36.366Z,101074.31
2023-03-29T01:40:39.445Z,101081.84
2023-03-29T01:43:51.527Z,101080.53
2023-03-29T01:47:18.796Z,101090.81
2023-03-29T01:50:43.056Z,101082.31
2023-03-29T01:54:04.838Z,101098.19
2023-03-29T01:57:10.445Z,101091.13
2023-03-29T02:00:20.915Z,101097.44
2023-03-29T02:03:31.026Z,101098.38
2023-03-29T02:06:36.114Z,101096.66
2023-03-29T02:09:39.259Z,101097.75
2023-03-29T02:12:42.429Z,101100.31
2023-03-29T02:15:46.742Z,101104.44
2023-03-29T02:18:52.981Z,101105.22
2023-03-29T02:22:04.200Z,101100.63
2023-03-29T02:25:09.340Z,101094.16
2023-03-29T02:28:14.324Z,101092.78
2023-03-29T02:31:29.725Z,101106.47
2023-03-29T02:35:01.853Z,101097.13
2023-03-29T02:38:10.568Z,101101.06
2023-03-29T02:41:13.678Z,101097.88
2023-03-29T02:44:23.364Z,101108.91
2023-03-29T02:47:32.195Z,101112.31
2023-03-29T02:50:38.239Z,101112.09
2023-03-29T02:53:52.044Z,101114.66
2023-03-29T02:57:06.590Z,101114.13
2023-03-29T03:00:10.803Z,101124.16
2023-03-29T03:03:15.698Z,101127.75
2023-03-29T03:06:21.425Z,101119.63
2023-03-29T03:09:24.518Z,101126.78
2023-03-29T03:12:28.488Z,101120.31
2023-03-29T03:15:32.994Z,101123.03
2023-03-29T03:18:35.491Z,101127.88
2023-03-29T03:21:38.420Z,101124.19
2023-03-29T03:24:41.052Z,101123.75
2023-03-29T03:27:43.854Z,101126.38
2023-03-29T03:30:46.601Z,101126.03
2023-03-29T03:34:08.751Z,101122.38
2023-03-29T03:37:25.823Z,101120.81
2023-03-29T03:40:28.525Z,101120.59
2023-03-29T03:43:31.371Z,101128.19
2023-03-29T03:46:33.881Z,101143.41
2023-03-29T03:49:37.552Z,101139.25
2023-03-29T03:52:40.376Z,101130.97
2023-03-29T03:55:48.780Z,101132.22
2023-03-29T03:58:57.111Z,101135.25
2023-03-29T04:02:00.730Z,101126.78
2023-03-29T04:05:03.558Z,101128.00
2023-03-29T04:08:12.603Z,101127.81
2023-03-29T04:11:33.746Z,101120.38
2023-03-29T04:14:36.978Z,101125.59
2023-03-29T04:17:42.054Z,101124.56
2023-03-29T04:20:59.160Z,101126.00
2023-03-29T04:24:04.376Z,101133.75
2023-03-29T04:27:09.714Z,101131.34
2023-03-29T04:30:13.142Z,101128.63
2023-03-29T04:33:41.660Z,101124.56
2023-03-29T04:36:45.098Z,101137.97
2023-03-29T04:39:54.656Z,101140.59
2023-03-29T04:43:00.150Z,101134.44
2023-03-29T04:46:03.399Z,101138.28
2023-03-29T04:49:35.162Z,101142.78
2023-03-29T04:52:38.844Z,101146.47
2023-03-29T04:55:42.253Z,101138.91
2023-03-29T04:58:49.666Z,101135.13
2023-03-29T05:01:52.560Z,101137.72
2023-03-29T05:04:55.204Z,101144.41
2023-03-29T05:07:57.870Z,101135.69
2023-03-29T05:11:09.107Z,101137.22
2023-03-29T05:14:11.819Z,101139.56
2023-03-29T05:17:14.431Z,101134.84
2023-03-29T05:20:17.711Z,101142.56
2023-03-29T05:23:24.184Z,101149.69
2023-03-29T05:26:45.182Z,101150.56
2023-03-29T05:29:49.118Z,101153.34
2023-03-29T05:33:19.742Z,101148.34
2023-03-29T05:36:23.516Z,101146.84
2023-03-29T05:39:27.291Z,101151.16
2023-03-29T05:42:34.144Z,101150.69
2023-03-29T05:45:43.517Z,101152.47
2023-03-29T05:48:46.576Z,101152.94
2023-03-29T05:51:50.663Z,101159.97
2023-03-29T05:54:53.517Z,101155.72
2023-03-29T05:57:57.319Z,101156.44
2023-03-29T06:01:12.015Z,101157.09
2023-03-29T06:04:28.384Z,101152.50
2023-03-29T06:07:52.103Z,101150.06
2023-03-29T06:11:11.513Z,101147.06
2023-03-29T06:14:37.416Z,101153.09
2023-03-29T06:18:06.603Z,101155.09
2023-03-29T06:21:11.112Z,101158.63
2023-03-29T06:24:14.153Z,101166.41
2023-03-29T06:27:23.590Z,101166.09
2023-03-29T06:30:26.867Z,101165.16
2023-03-29T06:33:34.215Z,101167.28
2023-03-29T06:36:57.742Z,101165.81
2023-03-29T06:40:01.399Z,101167.00
2023-03-29T06:43:14.224Z,101172.19
2023-03-29T06:46:17.106Z,101171.66
2023-03-29T06:49:31.861Z,101179.84
2023-03-29T06:52:41.391Z,101177.94
2023-03-29T06:55:44.419Z,101178.66
2023-03-29T06:59:06.968Z,101177.19
2023-03-29T07:02:17.862Z,101185.84
2023-03-29T07:05:44.987Z,101193.94
2023-03-29T07:08:52.616Z,101180.31
2023-03-29T07:12:31.107Z,101185.75
2023-03-29T07:15:37.050Z,101186.63
2023-03-29T07:18:52.215Z,101183.94
2023-03-29T07:22:17.676Z,101192.50
2023-03-29T07:25:25.910Z,101192.50
2023-03-29T07:28:28.612Z,101199.66
2023-03-29T07:31:33.062Z,101200.00
2023-03-29T07:34:56.042Z,101204.72
2023-03-29T07:38:08.578Z,101209.03
2023-03-29T07:41:13.866Z,101206.38
2023-03-29T07:44:24.387Z,101209.19
2023-03-29T07:47:27.135Z,101215.59
2023-03-29T07:50:32.683Z,101211.34
2023-03-29T07:53:39.992Z,101198.25
2023-03-29T07:56:51.705Z,101199.84
2023-03-29T08:00:26.747Z,101209.59
2023-03-29T08:03:49.545Z,101211.91
2023-03-29T08:06:52.993Z,101211.25
2023-03-29T08:09:57.474Z,101210.31
2023-03-29T08:13:13.689Z,101210.66
2023-03-29T08:16:42.498Z,101203.63
2023-03-29T08:19:51.250Z,101206.56
2023-03-29T08:22:58.036Z,101198.34
2023-03-29T08:26:24.367Z,101200.38
2023-03-29T08:29:27.608Z,101200.63
2023-03-29T08:32:31.801Z,101190.75
2023-03-29T08:35:34.987Z,101191.91
2023-03-29T08:38:58.026Z,101192.38
2023-03-29T08:42:10.084Z,101193.72
2023-03-29T08:45:35.566Z,101178.00
2023-03-29T08:48:44.320Z,101187.41
2023-03-29T08:52:17.347Z,101181.50
2023-03-29T08:55:41.415Z,101180.06
2023-03-29T08:59:02.751Z,101175.97
2023-03-29T09:02:18.112Z,101166.50
2023-03-29T09:05:29.437Z,101165.97
2023-03-29T09:08:49.291Z,101160.19
2023-03-29T09:12:01.897Z,101157.03
2023-03-29T09:15:16.556Z,101156.09
2023-03-29T09:19:00.124Z,101144.34
2023-03-29T09:22:24.437Z,101150.06
2023-03-29T09:25:52.672Z,101144.22
2023-03-29T09:29:19.871Z,101150.78
2023-03-29T09:32:35.374Z,101144.81
2023-03-29T09:35:47.129Z,101139.31
2023-03-29T09:38:54.376Z,101127.41
2023-03-29T09:42:05.520Z,101121.44
2023-03-29T09:45:10.122Z,101122.44
2023-03-29T09:48:21.094Z,101119.28
2023-03-29T09:51:33.172Z,101125.28
2023-03-29T09:54:36.542Z,101119.13
2023-03-29T09:58:11.698Z,101124.09
2023-03-29T10:01:19.179Z,101115.97
2023-03-29T10:04:26.070Z,101111.63
2023-03-29T10:07:46.383Z,101110.47
2023-03-29T10:10:50.586Z,101098.16
2023-03-29T10:13:55.122Z,101105.81
2023-03-29T10:16:58.499Z,101098.13
2023-03-29T10:20:04.511Z,101094.50
2023-03-29T10:23:09.153Z,101093.66
2023-03-29T10:26:23.037Z,101077.34
2023-03-29T10:29:34.713Z,101078.53
2023-03-29T10:32:38.576Z,101081.53
2023-03-29T10:35:42.134Z,101085.84
2023-03-29T10:38:45.116Z,101086.13
2023-03-29T10:41:52.805Z,101079.50
2023-03-29T10:45:00.356Z,101080.06
2023-03-29T10:48:05.250Z,101069.22
2023-03-29T10:51:07.897Z,101072.94
2023-03-29T10:54:14.731Z,101076.22
2023-03-29T10:57:37.625Z,101062.34
2023-03-29T11:00:49.957Z,101053.03
2023-03-29T11:03:59.053Z,101051.06
2023-03-29T11:07:26.421Z,101048.97
2023-03-29T11:10:31.919Z,101050.66
2023-03-29T11:13:58.077Z,101041.72
2023-03-29T11:17:48.370Z,101032.69
2023-03-29T11:20:59.037Z,101031.19
2023-03-29T11:24:39.147Z,101018.72
2023-03-29T11:28:09.675Z,101019.81
2023-03-29T11:31:30.603Z,101031.34
2023-03-29T11:35:06.588Z,101024.53
2023-03-29T11:38:18.262Z,101018.81
2023-03-29T11:41:38.147Z,101006.84
2023-03-29T11:44:44.086Z,101005.28
2023-03-29T11:47:47.718Z,101004.34
2023-03-29T11:51:04.766Z,101003.16
2023-03-29T11:54:34.756Z,100995.78
2023-03-29T11:57:44.140Z,100995.31
2023-03-29T12:00:56.420Z,100997.53
2023-03-29T12:04:23.098Z,100985.38
2023-03-29T12:07:35.911Z,100986.75
2023-03-29T12:10:49.887Z,100988.41
2023-03-29T12:14:05.521Z,100971.53
2023-03-29T12:17:14.663Z,100964.16
2023-03-29T12:20:28.353Z,100968.81
2023-03-29T12:23:34.294Z,100976.72
2023-03-29T12:26:47.239Z,100971.97
2023-03-29T12:30:14.664Z,100956.63
2023-03-29T12:33:24.816Z,100953.19
2023-03-29T12:36:35.873Z,100950.69
2023-03-29T12:40:05.449Z,100948.50
2023-03-29T12:43:39.125Z,100957.53
2023-03-29T12:47:00.622Z,100954.41
2023-03-29T12:50:04.751Z,100955.69
2023-03-29T12:53:49.086Z,100944.13
2023-03-29T12:56:51.841Z,100944.59
2023-03-29T12:59:55.101Z,100930.47
2023-03-29T13:03:14.253Z,100938.09
2023-03-29T13:06:50.517Z,100942.44
2023-03-29T13:09:58.850Z,100947.97
2023-03-29T13:13:12.554Z,100948.13
2023-03-29T13:16:18.535Z,100939.63
2023-03-29T13:19:46.344Z,100939.78
2023-03-29T13:23:09.604Z,100927.47
2023-03-29T13:26:23.495Z,100924.69
2023-03-29T13:29:47.905Z,100930.28
2023-03-29T13:32:56.038Z,100917.66
2023-03-29T13:36:23.202Z,100915.88
2023-03-29T13:39:32.312Z,100906.06
2023-03-29T13:42:35.491Z,100908.97
2023-03-29T13:45:39.007Z,100902.97
2023-03-29T13:48:41.473Z,100902.88
2023-03-29T13:51:53.227Z,100906.63
2023-03-29T13:55:21.694Z,100893.88
2023-03-29T13:58:37.992Z,100892.50
2023-03-29T14:01:48.261Z,100899.09
2023-03-29T14:04:52.502Z,100889.50
2023-03-29T14:07:55.870Z,100884.81
2023-03-29T14:11:02.761Z,100890.25
2023-03-29T14:14:08.427Z,100891.31
2023-03-29T14:17:19.481Z,100880.00
2023-03-29T14:20:22.546Z,100881.13
2023-03-29T14:23:28.170Z,100870.78
2023-03-29T14:26:33.919Z,100872.91
2023-03-29T14:29:36.644Z,100860.81
2023-03-29T14:32:39.891Z,100866.47
2023-03-29T14:35:42.655Z,100863.53
2023-03-29T14:39:01.810Z,100861.00
2023-03-29T14:42:14.420Z,100860.72
2023-03-29T14:45:23.302Z,100865.47
2023-03-29T14:48:26.401Z,100853.50
2023-03-29T14:51:31.222Z,100840.63
2023-03-29T14:54:36.217Z,100850.63
2023-03-29T14:57:39.474Z,100848.75
2023-03-29T15:00:45.061Z,100859.28
2023-03-29T15:03:54.956Z,100850.41
2023-03-29T15:06:58.622Z,100849.16
2023-03-29T15:10:05.248Z,100841.94
2023-03-29T15:13:08.845Z,100853.06
2023-03-29T15:16:13.922Z,100844.19
2023-03-29T15:19:25.537Z,100844.41
2023-03-29T15:22:33.335Z,100844.56
2023-03-29T15:25:38.384Z,100845.44
2023-03-29T15:29:03.211Z,100840.31
2023-03-29T15:32:05.760Z,100839.81
2023-03-29T15:35:24.815Z,100846.50
2023-03-29T15:38:40.453Z,100846.63
2023-03-29T15:41:52.158Z,100837.69
2023-03-29T15:44:56.518Z,100832.00
2023-03-29T15:48:02.055Z,100833.63
2023-03-29T15:51:06.782Z,100824.50
2023-03-29T15:54:09.718Z,100825.22
2023-03-29T15:57:15.046Z,100824.69
2023-03-29T16:00:19.889Z,100822.44
2023-03-29T16:03:23.988Z,100824.91
2023-03-29T16:06:26.688Z,100822.44
2023-03-29T16:09:29.549Z,100823.78
2023-03-29T16:12:32.082Z,100827.44
2023-03-29T16:15:36.825Z,100815.81
2023-03-29T16:18:39.600Z,100816.22
2023-03-29T16:21:43.202Z,100811.19
2023-03-29T16:24:45.730Z,100813.34
2023-03-29T16:27:48.675Z,100813.50
2023-03-29T16:30:51.450Z,100811.72
2023-03-29T16:33:54.081Z,100810.22
2023-03-29T16:36:56.736Z,100804.75
2023-03-29T16:39:59.784Z,100798.03
2023-03-29T16:43:14.955Z,100804.06
2023-03-29T16:46:17.451Z,100802.78
2023-03-29T16:49:20.002Z,100805.56
2023-03-29T16:52:23.258Z,100808.50
2023-03-29T16:55:25.781Z,100814.16
2023-03-29T16:58:28.715Z,100814.06
2023-03-29T17:01:31.582Z,100815.63
2023-03-29T17:04:34.226Z,100815.81
2023-03-29T17:07:36.882Z,100809.75
2023-03-29T17:10:43.100Z,100810.78
2023-03-29T17:13:45.903Z,100811.50
2023-03-29T17:16:48.417Z,100801.84
2023-03-29T17:19:51.261Z,100806.09
2023-03-29T17:22:56.048Z,100811.50
2023-03-29T17:25:58.872Z,100810.56
2023-03-29T17:29:01.653Z,100808.81
2023-03-29T17:32:04.784Z,100814.03
2023-03-29T17:35:09.093Z,100814.69
2023-03-29T17:38:12.181Z,100817.34
2023-03-29T17:41:16.148Z,100821.38
2023-03-29T17:44:19.512Z,100832.69
2023-03-29T17:47:22.112Z,100830.09
2023-03-29T17:50:24.986Z,100833.47
2023-03-29T17:53:27.770Z,100834.03
2023-03-29T17:56:30.603Z,100827.03
2023-03-29T17:59:33.328Z,100830.69
2023-03-29T18:02:36.831Z,100828.03
2023-03-29T18:05:39.781Z,100832.59
2023-03-29T18:08:42.670Z,100825.78
2023-03-29T18:11:45.432Z,100835.63
2023-03-29T18:14:48.416Z,100830.66
2023-03-29T18:17:51.246Z,100843.00
2023-03-29T18:20:54.079Z,100845.66
2023-03-29T18:23:57.384Z,100851.16
2023-03-29T18:26:59.983Z,100858.13
2023-03-29T18:30:03.217Z,100857.19
2023-03-29T18:33:06.381Z,100860.97
2023-03-29T18:36:13.340Z,100862.16
2023-03-29T18:39:16.564Z,100856.47
2023-03-29T18:42:21.901Z,100857.19
2023-03-29T18:45:24.461Z,100859.16
2023-03-29T18:48:28.935Z,100857.69
2023-03-29T18:51:32.965Z,100848.66
2023-03-29T18:54:35.833Z,100848.00
2023-03-29T18:57:38.341Z,100856.19
2023-03-29T19:00:44.633Z,100847.03
2023-03-29T19:03:48.184Z,100849.03
2023-03-29T19:06:52.166Z,100861.31
2023-03-29T19:09:54.894Z,100853.34
2023-03-29T19:12:57.784Z,100864.66
2023-03-29T19:16:01.167Z,100856.84
2023-03-29T19:19:06.721Z,100860.53
2023-03-29T19:22:09.857Z,100865.66
2023-03-29T19:25:12.346Z,100861.50
2023-03-29T19:28:16.385Z,100869.66
2023-03-29T19:31:19.576Z,100868.88
2023-03-29T19:34:26.971Z,100866.56
2023-03-29T19:37:29.929Z,100866.72
2023-03-29T19:40:32.816Z,100869.72
2023-03-29T19:43:35.789Z,100865.41
2023-03-29T19:46:38.636Z,100865.75
2023-03-29T19:49:41.522Z,100865.09
2023-03-29T19:52:44.153Z,100860.78
2023-03-29T19:55:46.874Z,100868.78
2023-03-29T19:58:52.750Z,100854.78
2023-03-29T20:01:57.131Z,100860.13
2023-03-29T20:04:59.870Z,100863.97
2023-03-29T20:08:02.465Z,100865.16
2023-03-29T20:11:10.424Z,100860.03
2023-03-29T20:14:14.062Z,100860.03
2023-03-29T20:17:16.591Z,100855.69
2023-03-29T20:20:23.094Z,100854.88
2023-03-29T20:23:27.392Z,100855.50
2023-03-29T20:26:30.721Z,100854.69
2023-03-29T20:29:34.357Z,100849.53
2023-03-29T20:32:37.225Z,100846.22
2023-03-29T20:35:39.874Z,100846.41
2023-03-29T20:38:42.370Z,100849.53
2023-03-29T20:41:47.776Z,100848.53
2023-03-29T20:44:51.363Z,100844.88
2023-03-29T20:47:57.916Z,100832.41
2023-03-29T20:51:03.109Z,100840.09
2023-03-29T20:54:06.216Z,100835.75
2023-03-29T20:57:11.734Z,100838.09
2023-03-29T21:00:14.605Z,100839.75
2023-03-29T21:03:17.984Z,100838.28
2023-03-29T21:06:21.182Z,100832.63
2023-03-29T21:09:25.513Z,100835.13
2023-03-29T21:12:28.153Z,100832.28
2023-03-29T21:15:35.285Z,100824.84
2023-03-29T21:18:39.688Z,100829.03
2023-03-29T21:21:43.976Z,100819.00
2023-03-29T21:24:46.500Z,100827.00
2023-03-29T21:27:49.206Z,100821.19
2023-03-29T21:30:51.661Z,100822.34
2023-03-29T21:33:56.304Z,100823.50
2023-03-29T21:36:58.799Z,100823.19
2023-03-29T21:40:05.629Z,100821.22
2023-03-29T21:43:08.180Z,100827.53
2023-03-29T21:46:11.782Z,100830.84
2023-03-29T21:49:14.434Z,100830.34
2023-03-29T21:52:17.906Z,100825.09
2023-03-29T21:55:20.700Z,100825.75
2023-03-29T21:58:23.325Z,100819.66
2023-03-29T22:01:26.605Z,100821.47
2023-03-29T22:04:37.115Z,100814.19
2023-03-29T22:07:40.322Z,100817.38
2023-03-29T22:10:42.931Z,100830.50
2023-03-29T22:13:47.022Z,100826.84
2023-03-29T22:16:50.315Z,100825.22
2023-03-29T22:19:53.409Z,100827.22
2023-03-29T22:22:56.129Z,100832.22
2023-03-29T22:25:59.014Z,100821.63
2023-03-29T22:29:01.789Z,100816.50
2023-03-29T22:32:05.856Z,100826.16
2023-03-29T22:35:09.422Z,100811.69
2023-03-29T22:38:11.881Z,100833.28
2023-03-29T22:41:18.730Z,100824.97
2023-03-29T22:44:21.668Z,100827.50
2023-03-29T22:47:25.063Z,100831.31
2023-03-29T22:50:27.826Z,100837.47
2023-03-29T22:53:30.488Z,100840.28
2023-03-29T22:56:33.560Z,100830.63
2023-03-29T22:59:36.172Z,100836.97
2023-03-29T23:02:39.130Z,100827.97
2023-03-29T23:05:41.653Z,100829.31
2023-03-29T23:08:44.408Z,100831.13
2023-03-29T23:11:46.923Z,100840.13
2023-03-29T23:14:52.946Z,100838.31
2023-03-29T23:17:55.516Z,100838.31
2023-03-29T23:20:59.082Z,100833.34
2023-03-29T23:24:02.021Z,100838.13
2023-03-29T23:27:05.597Z,100834.31
2023-03-29T23:30:09.020Z,100834.97
2023-03-29T23:33:11.801Z,100837.31
2023-03-29T23:36:16.739Z,100832.50
2023-03-29T23:39:19.328Z,100843.78
2023-03-29T23:42:22.678Z,100832.50
2023-03-29T23:45:29.226Z,100826.84
2023-03-29T23:48:32.697Z,100828.50
2023-03-29T23:51:36.784Z,100826.34
2023-03-29T23:54:39.606Z,100825.50
2023-03-29T23:57:42.324Z,100827.97
